sensor_id;sensor_type;location;lat;lon;timestamp;pressure;altitude;pressure_sealevel;temperature;humidity
10474;BME280;5284;50.446;7.904;2024-03-23T00:57:17;97585.66;;;7.69;100.00
10474;BME280;5284;50.446;7.904;2024-03-23T01:02:19;97588.63;;;7.76;100.00
10474;BME280;5284;50.446;7.904;2024-03-23T01:07:22;97577.72;;;7.79;100.00
10474;BME280;5284;50.446;7.904;2024-03-23T01:12:26;97571.28;;;7.81;100.00
10474;BME280;5284;50.446;7.904;2024-03-23T01:17:30;97571.44;;;7.80;100.00
10474;BME280;5284;50.446;7.904;2024-03-23T01:22:33;97558.47;;;7.86;100.00
10474;BME280;5284;50.446;7.904;2024-03-23T01:27:37;97544.78;;;7.91;100.00
10474;BME280;5284;50.446;7.904;2024-03-23T01:32:39;97547.31;;;7.92;100.00
10474;BME280;5284;50.446;7.904;2024-03-23T01:37:41;97541.00;;;7.93;100.00
10474;BME280;5284;50.446;7.904;2024-03-23T01:42:55;97527.19;;;7.99;100.00
10474;BME280;5284;50.446;7.904;2024-03-23T01:47:57;97525.91;;;8.03;100.00
10474;BME280;5284;50.446;7.904;2024-03-23T01:53:00;97509.72;;;8.06;100.00
10474;BME280;5284;50.446;7.904;2024-03-23T01:58:03;97502.16;;;8.11;100.00
10474;BME280;5284;50.446;7.904;2024-03-23T02:03:23;97497.56;;;8.04;100.00
10474;BME280;5284;50.446;7.904;2024-03-23T02:08:26;97509.44;;;8.00;100.00
10474;BME280;5284;50.446;7.904;2024-03-23T02:13:30;97518.25;;;8.00;100.00
10474;BME280;5284;50.446;7.904;2024-03-23T02:18:33;97500.09;;;7.86;100.00
10474;BME280;5284;50.446;7.904;2024-03-23T02:23:37;97502.16;;;7.73;100.00
10474;BME280;5284;50.446;7.904;2024-03-23T02:28:39;97505.22;;;7.59;100.00
10474;BME280;5284;50.446;7.904;2024-03-23T02:33:41;97504.09;;;7.43;100.00
10474;BME280;5284;50.446;7.904;2024-03-23T02:38:44;97511.56;;;7.29;100.00
10474;BME280;5284;50.446;7.904;2024-03-23T02:43:48;97506.22;;;7.10;100.00
10474;BME280;5284;50.446;7.904;2024-03-23T02:48:50;97503.34;;;6.92;100.00
10474;BME280;5284;50.446;7.904;2024-03-23T02:53:54;97507.81;;;6.92;100.00
10474;BME280;5284;50.446;7.904;2024-03-23T02:58:56;97508.88;;;6.80;100.00
10474;BME280;5284;50.446;7.904;2024-03-23T03:03:58;97499.78;;;6.73;100.00
10474;BME280;5284;50.446;7.904;2024-03-23T03:09:01;97511.63;;;6.69;100.00
10474;BME280;5284;50.446;7.904;2024-03-23T03:14:06;97497.22;;;6.62;100.00
10474;BME280;5284;50.446;7.904;2024-03-23T03:19:08;97494.16;;;6.57;100.00
10474;BME280;5284;50.446;7.904;2024-03-23T03:24:12;97504.56;;;6.49;100.00
10474;BME280;5284;50.446;7.904;2024-03-23T03:29:15;97519.84;;;6.45;100.00
10474;BME280;5284;50.446;7.904;2024-03-23T03:34:19;97529.03;;;6.41;100.00
10474;BME280;5284;50.446;7.904;2024-03-23T03:39:23;97524.25;;;6.35;100.00
10474;BME280;5284;50.446;7.904;2024-03-23T03:44:26;97518.81;;;6.37;100.00
10474;BME280;5284;50.446;7.904;2024-03-23T03:49:28;97498.31;;;6.29;100.00
10474;BME280;5284;50.446;7.904;2024-03-23T03:54:32;97514.03;;;6.31;100.00
10474;BME280;5284;50.446;7.904;2024-03-23T03:59:34;97530.56;;;6.23;100.00
10474;BME280;5284;50.446;7.904;2024-03-23T04:04:37;97529.59;;;6.24;100.00
10474;BME280;5284;50.446;7.904;2024-03-23T04:09:41;97505.78;;;6.24;100.00
10474;BME280;5284;50.446;7.904;2024-03-23T04:14:44;97513.97;;;6.21;100.00
10474;BME280;5284;50.446;7.904;2024-03-23T04:19:48;97517.47;;;6.22;100.00
10474;BME280;5284;50.446;7.904;2024-03-23T04:24:58;97534.44;;;6.19;100.00
10474;BME280;5284;50.446;7.904;2024-03-23T04:30:01;97529.59;;;6.04;100.00
10474;BME280;5284;50.446;7.904;2024-03-23T04:35:05;97559.25;;;5.87;100.00
10474;BME280;5284;50.446;7.904;2024-03-23T04:40:11;97560.34;;;5.74;100.00
10474;BME280;5284;50.446;7.904;2024-03-23T04:45:14;97575.50;;;5.61;100.00
10474;BME280;5284;50.446;7.904;2024-03-23T04:50:16;97614.13;;;5.41;100.00
10474;BME280;5284;50.446;7.904;2024-03-23T04:55:21;97616.69;;;5.32;100.00
10474;BME280;5284;50.446;7.904;2024-03-23T05:00:24;97617.28;;;5.24;100.00
10474;BME280;5284;50.446;7.904;2024-03-23T05:05:27;97620.88;;;5.12;100.00
10474;BME280;5284;50.446;7.904;2024-03-23T05:10:30;97627.00;;;5.02;100.00
10474;BME280;5284;50.446;7.904;2024-03-23T05:15:33;97617.59;;;4.87;100.00
10474;BME280;5284;50.446;7.904;2024-03-23T05:20:35;97628.53;;;4.82;100.00
10474;BME280;5284;50.446;7.904;2024-03-23T05:25:40;97626.56;;;4.73;100.00
10474;BME280;5284;50.446;7.904;2024-03-23T05:30:42;97642.56;;;4.72;100.00
10474;BME280;5284;50.446;7.904;2024-03-23T05:35:45;97643.03;;;4.77;100.00
10474;BME280;5284;50.446;7.904;2024-03-23T05:40:54;97662.09;;;4.69;100.00
10474;BME280;5284;50.446;7.904;2024-03-23T05:45:56;97656.94;;;4.68;100.00
10474;BME280;5284;50.446;7.904;2024-03-23T05:50:58;97659.34;;;4.60;100.00
10474;BME280;5284;50.446;7.904;2024-03-23T05:56:02;97659.53;;;4.57;100.00
10474;BME280;5284;50.446;7.904;2024-03-23T06:01:05;97676.09;;;4.59;100.00
10474;BME280;5284;50.446;7.904;2024-03-23T06:06:07;97685.22;;;4.55;100.00
10474;BME280;5284;50.446;7.904;2024-03-23T06:11:13;97693.13;;;4.55;100.00
10474;BME280;5284;50.446;7.904;2024-03-23T06:16:15;97699.84;;;4.59;100.00
10474;BME280;5284;50.446;7.904;2024-03-23T06:21:20;97714.66;;;4.61;100.00
10474;BME280;5284;50.446;7.904;2024-03-23T06:26:25;97717.63;;;4.57;100.00
10474;BME280;5284;50.446;7.904;2024-03-23T06:31:28;97726.88;;;4.62;100.00
10474;BME280;5284;50.446;7.904;2024-03-23T06:36:30;97736.50;;;4.63;100.00
10474;BME280;5284;50.446;7.904;2024-03-23T06:41:34;97738.66;;;4.69;100.00
10474;BME280;5284;50.446;7.904;2024-03-23T06:46:37;97749.13;;;4.71;100.00
10474;BME280;5284;50.446;7.904;2024-03-23T06:51:39;97746.75;;;4.79;100.00
10474;BME280;5284;50.446;7.904;2024-03-23T06:56:43;97746.53;;;4.93;100.00
10474;BME280;5284;50.446;7.904;2024-03-23T07:01:45;97757.91;;;5.06;100.00
10474;BME280;5284;50.446;7.904;2024-03-23T07:06:47;97768.28;;;5.31;100.00
10474;BME280;5284;50.446;7.904;2024-03-23T07:11:51;97787.84;;;5.28;100.00
10474;BME280;5284;50.446;7.904;2024-03-23T07:16:55;97786.41;;;5.24;100.00
10474;BME280;5284;50.446;7.904;2024-03-23T07:21:57;97796.50;;;5.30;100.00
10474;BME280;5284;50.446;7.904;2024-03-23T07:27:01;97798.16;;;5.66;100.00
10474;BME280;5284;50.446;7.904;2024-03-23T07:32:04;97789.16;;;5.90;100.00
10474;BME280;5284;50.446;7.904;2024-03-23T07:37:07;97798.06;;;6.22;100.00
10474;BME280;5284;50.446;7.904;2024-03-23T07:42:10;97797.06;;;6.12;100.00
10474;BME280;5284;50.446;7.904;2024-03-23T07:47:13;97791.94;;;6.64;100.00
10474;BME280;5284;50.446;7.904;2024-03-23T07:52:16;97791.66;;;6.78;100.00
10474;BME280;5284;50.446;7.904;2024-03-23T07:57:20;97798.88;;;6.87;100.00
10474;BME280;5284;50.446;7.904;2024-03-23T08:02:22;97806.16;;;6.94;100.00
10474;BME280;5284;50.446;7.904;2024-03-23T08:07:24;97810.38;;;6.97;100.00
10474;BME280;5284;50.446;7.904;2024-03-23T08:12:29;97825.28;;;6.77;100.00
10474;BME280;5284;50.446;7.904;2024-03-23T08:17:31;97829.97;;;6.74;100.00
10474;BME280;5284;50.446;7.904;2024-03-23T08:22:33;97830.94;;;7.36;100.00
10474;BME280;5284;50.446;7.904;2024-03-23T08:27:37;97832.88;;;7.54;100.00
10474;BME280;5284;50.446;7.904;2024-03-23T08:32:40;97829.94;;;7.68;100.00
10474;BME280;5284;50.446;7.904;2024-03-23T08:37:42;97832.38;;;7.60;100.00
10474;BME280;5284;50.446;7.904;2024-03-23T08:42:46;97820.06;;;8.00;100.00
10474;BME280;5284;50.446;7.904;2024-03-23T08:47:48;97824.16;;;7.83;100.00
10474;BME280;5284;50.446;7.904;2024-03-23T08:52:50;97826.66;;;8.35;100.00
10474;BME280;5284;50.446;7.904;2024-03-23T08:57:55;97821.94;;;8.48;100.00
10474;BME280;5284;50.446;7.904;2024-03-23T09:02:57;97820.59;;;8.63;100.00
10474;BME280;5284;50.446;7.904;2024-03-23T09:07:59;97816.94;;;8.55;100.00
10474;BME280;5284;50.446;7.904;2024-03-23T09:13:03;97825.38;;;8.79;100.00
10474;BME280;5284;50.446;7.904;2024-03-23T09:18:05;97815.34;;;9.48;100.00
10474;BME280;5284;50.446;7.904;2024-03-23T09:23:07;97815.34;;;9.10;100.00
10474;BME280;5284;50.446;7.904;2024-03-23T09:28:10;97883.81;;;8.09;100.00
10474;BME280;5284;50.446;7.904;2024-03-23T09:33:13;97865.31;;;6.19;100.00
10474;BME280;5284;50.446;7.904;2024-03-23T09:38:15;97851.47;;;5.49;100.00
10474;BME280;5284;50.446;7.904;2024-03-23T09:43:19;97846.09;;;5.27;100.00
10474;BME280;5284;50.446;7.904;2024-03-23T09:48:22;97834.75;;;5.03;100.00
10474;BME280;5284;50.446;7.904;2024-03-23T09:53:25;97829.47;;;5.03;100.00
10474;BME280;5284;50.446;7.904;2024-03-23T09:58:28;97820.78;;;5.81;100.00
10474;BME280;5284;50.446;7.904;2024-03-23T10:03:42;97817.91;;;5.84;100.00
10474;BME280;5284;50.446;7.904;2024-03-23T10:08:45;97819.47;;;6.08;100.00
10474;BME280;5284;50.446;7.904;2024-03-23T10:13:49;97809.72;;;6.73;100.00
10474;BME280;5284;50.446;7.904;2024-03-23T10:18:52;97802.28;;;7.09;100.00
10474;BME280;5284;50.446;7.904;2024-03-23T10:23:54;97786.56;;;7.58;100.00
10474;BME280;5284;50.446;7.904;2024-03-23T10:28:59;97771.31;;;8.40;100.00
10474;BME280;5284;50.446;7.904;2024-03-23T10:34:02;97777.28;;;9.19;100.00
10474;BME280;5284;50.446;7.904;2024-03-23T10:39:05;97785.53;;;9.07;100.00
10474;BME280;5284;50.446;7.904;2024-03-23T10:44:10;97798.00;;;8.97;99.04
10474;BME280;5284;50.446;7.904;2024-03-23T10:49:13;97792.09;;;8.94;98.93
10474;BME280;5284;50.446;7.904;2024-03-23T10:54:15;97787.31;;;8.78;93.54
10474;BME280;5284;50.446;7.904;2024-03-23T10:59:20;97782.31;;;8.94;92.04
10474;BME280;5284;50.446;7.904;2024-03-23T11:04:30;97775.44;;;9.01;81.98
10474;BME280;5284;50.446;7.904;2024-03-23T11:09:39;97769.31;;;9.84;79.38
10474;BME280;5284;50.446;7.904;2024-03-23T11:14:43;97761.84;;;10.07;78.93
10474;BME280;5284;50.446;7.904;2024-03-23T11:19:52;97768.56;;;10.01;76.52
10474;BME280;5284;50.446;7.904;2024-03-23T11:24:55;97773.75;;;9.38;96.02
10474;BME280;5284;50.446;7.904;2024-03-23T11:30:11;97787.34;;;10.09;97.99
10474;BME280;5284;50.446;7.904;2024-03-23T11:35:27;97785.13;;;9.21;85.34
10474;BME280;5284;50.446;7.904;2024-03-23T11:40:30;97800.06;;;8.94;100.00
10474;BME280;5284;50.446;7.904;2024-03-23T11:45:37;97815.91;;;8.16;100.00
10474;BME280;5284;50.446;7.904;2024-03-23T11:50:41;97828.00;;;7.50;100.00
10474;BME280;5284;50.446;7.904;2024-03-23T11:55:48;97817.50;;;7.28;100.00
10474;BME280;5284;50.446;7.904;2024-03-23T12:00:57;97815.88;;;7.56;100.00
10474;BME280;5284;50.446;7.904;2024-03-23T12:06:02;97804.78;;;7.92;100.00
10474;BME280;5284;50.446;7.904;2024-03-23T12:11:05;97810.69;;;8.05;100.00
10474;BME280;5284;50.446;7.904;2024-03-23T12:16:11;97814.22;;;8.94;95.18
10474;BME280;5284;50.446;7.904;2024-03-23T12:21:14;97821.44;;;8.24;98.73
10474;BME280;5284;50.446;7.904;2024-03-23T12:26:17;97874.53;;;7.43;100.00
10474;BME280;5284;50.446;7.904;2024-03-23T12:31:20;97865.19;;;6.54;100.00
10474;BME280;5284;50.446;7.904;2024-03-23T12:36:22;97851.81;;;6.66;100.00
10474;BME280;5284;50.446;7.904;2024-03-23T12:41:24;97846.22;;;6.80;100.00
10474;BME280;5284;50.446;7.904;2024-03-23T12:46:28;97832.59;;;6.85;100.00
10474;BME280;5284;50.446;7.904;2024-03-23T12:51:33;97836.22;;;6.84;100.00
10474;BME280;5284;50.446;7.904;2024-03-23T12:56:36;97838.38;;;6.79;100.00
10474;BME280;5284;50.446;7.904;2024-03-23T13:01:39;97828.47;;;7.64;100.00
10474;BME280;5284;50.446;7.904;2024-03-23T13:06:41;97815.75;;;9.06;100.00
10474;BME280;5284;50.446;7.904;2024-03-23T13:11:43;97805.06;;;9.82;100.00
10474;BME280;5284;50.446;7.904;2024-03-23T13:16:46;97799.09;;;9.32;95.92
10474;BME280;5284;50.446;7.904;2024-03-23T13:21:48;97802.00;;;8.82;100.00
10474;BME280;5284;50.446;7.904;2024-03-23T13:26:50;97813.16;;;8.57;100.00
10474;BME280;5284;50.446;7.904;2024-03-23T13:31:54;97829.50;;;7.93;100.00
10474;BME280;5284;50.446;7.904;2024-03-23T13:36:56;97813.97;;;7.47;100.00
10474;BME280;5284;50.446;7.904;2024-03-23T13:41:59;97818.38;;;7.38;100.00
10474;BME280;5284;50.446;7.904;2024-03-23T13:47:05;97792.03;;;7.86;100.00
10474;BME280;5284;50.446;7.904;2024-03-23T13:52:07;97787.13;;;8.12;100.00
10474;BME280;5284;50.446;7.904;2024-03-23T13:57:10;97780.06;;;8.22;100.00
10474;BME280;5284;50.446;7.904;2024-03-23T14:02:13;97765.97;;;8.31;100.00
10474;BME280;5284;50.446;7.904;2024-03-23T14:07:16;97758.66;;;8.82;100.00
10474;BME280;5284;50.446;7.904;2024-03-23T14:12:19;97745.38;;;8.91;100.00
10474;BME280;5284;50.446;7.904;2024-03-23T14:17:24;97744.59;;;9.46;100.00
10474;BME280;5284;50.446;7.904;2024-03-23T14:22:28;97738.47;;;9.26;100.00
10474;BME280;5284;50.446;7.904;2024-03-23T14:27:30;97738.94;;;9.12;100.00
10474;BME280;5284;50.446;7.904;2024-03-23T14:32:33;97746.16;;;9.29;100.00
10474;BME280;5284;50.446;7.904;2024-03-23T14:37:36;97753.03;;;9.13;100.00
10474;BME280;5284;50.446;7.904;2024-03-23T14:42:39;97748.19;;;9.73;100.00
10474;BME280;5284;50.446;7.904;2024-03-23T14:47:43;97736.59;;;9.55;100.00
10474;BME280;5284;50.446;7.904;2024-03-23T14:52:46;97737.53;;;8.90;100.00
10474;BME280;5284;50.446;7.904;2024-03-23T14:57:48;97724.84;;;9.58;100.00
10474;BME280;5284;50.446;7.904;2024-03-23T15:02:53;97716.06;;;9.84;94.93
10474;BME280;5284;50.446;7.904;2024-03-23T15:07:57;97740.66;;;9.50;97.08
10474;BME280;5284;50.446;7.904;2024-03-23T15:13:00;97727.25;;;9.32;96.63
10474;BME280;5284;50.446;7.904;2024-03-23T15:18:05;97723.94;;;9.11;96.75
10474;BME280;5284;50.446;7.904;2024-03-23T15:23:07;97721.84;;;8.77;97.11
10474;BME280;5284;50.446;7.904;2024-03-23T15:28:10;97733.03;;;8.71;100.00
10474;BME280;5284;50.446;7.904;2024-03-23T15:33:13;97743.94;;;7.80;100.00
10474;BME280;5284;50.446;7.904;2024-03-23T15:38:17;97739.63;;;7.08;100.00
10474;BME280;5284;50.446;7.904;2024-03-23T15:43:19;97731.03;;;7.16;100.00
10474;BME280;5284;50.446;7.904;2024-03-23T15:48:23;97725.47;;;7.69;100.00
10474;BME280;5284;50.446;7.904;2024-03-23T15:53:27;97714.69;;;8.00;100.00
10474;BME280;5284;50.446;7.904;2024-03-23T15:58:31;97717.03;;;7.94;100.00
10474;BME280;5284;50.446;7.904;2024-03-23T16:03:34;97717.13;;;7.83;100.00
10474;BME280;5284;50.446;7.904;2024-03-23T16:08:38;97711.34;;;7.98;100.00
10474;BME280;5284;50.446;7.904;2024-03-23T16:13:39;97703.16;;;7.81;100.00
10474;BME280;5284;50.446;7.904;2024-03-23T16:18:45;97706.00;;;7.59;100.00
10474;BME280;5284;50.446;7.904;2024-03-23T16:23:47;97700.75;;;7.18;100.00
10474;BME280;5284;50.446;7.904;2024-03-23T16:28:49;97704.44;;;7.06;99.34
10474;BME280;5284;50.446;7.904;2024-03-23T16:33:53;97757.69;;;6.83;100.00
10474;BME280;5284;50.446;7.904;2024-03-23T16:38:55;97767.63;;;5.62;100.00
10474;BME280;5284;50.446;7.904;2024-03-23T16:43:57;97783.13;;;5.10;100.00
10474;BME280;5284;50.446;7.904;2024-03-23T16:49:01;97766.16;;;4.67;100.00
10474;BME280;5284;50.446;7.904;2024-03-23T16:54:03;97756.88;;;4.15;100.00
10474;BME280;5284;50.446;7.904;2024-03-23T16:59:06;97752.78;;;4.11;100.00
10474;BME280;5284;50.446;7.904;2024-03-23T17:04:09;97732.50;;;4.11;100.00
10474;BME280;5284;50.446;7.904;2024-03-23T17:09:12;97731.78;;;4.09;100.00
10474;BME280;5284;50.446;7.904;2024-03-23T17:14:14;97740.56;;;4.10;100.00
10474;BME280;5284;50.446;7.904;2024-03-23T17:19:18;97750.66;;;4.16;100.00
10474;BME280;5284;50.446;7.904;2024-03-23T17:24:21;97750.25;;;4.09;100.00
10474;BME280;5284;50.446;7.904;2024-03-23T17:29:23;97754.59;;;3.98;100.00
10474;BME280;5284;50.446;7.904;2024-03-23T17:34:27;97751.66;;;3.90;100.00
10474;BME280;5284;50.446;7.904;2024-03-23T17:39:30;97752.13;;;3.84;100.00
10474;BME280;5284;50.446;7.904;2024-03-23T17:44:33;97753.56;;;3.88;100.00
10474;BME280;5284;50.446;7.904;2024-03-23T17:49:37;97762.22;;;3.90;100.00
10474;BME280;5284;50.446;7.904;2024-03-23T17:54:39;97753.88;;;3.83;100.00
10474;BME280;5284;50.446;7.904;2024-03-23T17:59:42;97753.88;;;3.83;100.00
10474;BME280;5284;50.446;7.904;2024-03-23T18:04:46;97756.66;;;3.82;100.00
10474;BME280;5284;50.446;7.904;2024-03-23T18:09:48;97756.97;;;3.77;100.00
10474;BME280;5284;50.446;7.904;2024-03-23T18:14:51;97748.75;;;3.82;100.00
10474;BME280;5284;50.446;7.904;2024-03-23T18:19:56;97745.03;;;3.84;100.00
10474;BME280;5284;50.446;7.904;2024-03-23T18:24:58;97752.34;;;3.81;100.00
10474;BME280;5284;50.446;7.904;2024-03-23T18:30:00;97747.28;;;3.78;100.00
10474;BME280;5284;50.446;7.904;2024-03-23T18:35:05;97742.63;;;3.69;100.00
10474;BME280;5284;50.446;7.904;2024-03-23T18:40:10;97746.34;;;3.66;100.00
10474;BME280;5284;50.446;7.904;2024-03-23T18:45:12;97740.94;;;3.68;100.00
10474;BME280;5284;50.446;7.904;2024-03-23T18:50:16;97742.84;;;3.66;100.00
10474;BME280;5284;50.446;7.904;2024-03-23T18:55:18;97742.75;;;3.67;100.00
10474;BME280;5284;50.446;7.904;2024-03-23T19:00:21;97727.06;;;3.53;100.00
10474;BME280;5284;50.446;7.904;2024-03-23T19:05:25;97728.97;;;3.51;100.00
10474;BME280;5284;50.446;7.904;2024-03-23T19:10:28;97729.38;;;3.45;100.00
10474;BME280;5284;50.446;7.904;2024-03-23T19:15:30;97730.56;;;3.41;100.00
10474;BME280;5284;50.446;7.904;2024-03-23T19:20:33;97737.50;;;3.42;100.00
10474;BME280;5284;50.446;7.904;2024-03-23T19:25:36;97725.59;;;3.37;100.00
10474;BME280;5284;50.446;7.904;2024-03-23T19:30:38;97717.91;;;3.34;100.00
10474;BME280;5284;50.446;7.904;2024-03-23T19:35:41;97720.16;;;3.27;100.00
10474;BME280;5284;50.446;7.904;2024-03-23T19:40:51;97706.84;;;3.29;100.00
10474;BME280;5284;50.446;7.904;2024-03-23T19:45:53;97711.91;;;3.32;100.00
10474;BME280;5284;50.446;7.904;2024-03-23T19:50:57;97717.72;;;3.24;100.00
10474;BME280;5284;50.446;7.904;2024-03-23T19:55:59;97719.50;;;3.24;100.00
10474;BME280;5284;50.446;7.904;2024-03-23T20:01:06;97722.03;;;3.25;100.00
10474;BME280;5284;50.446;7.904;2024-03-23T20:06:16;97722.03;;;3.25;100.00
10474;BME280;5284;50.446;7.904;2024-03-23T20:11:23;97711.50;;;3.25;100.00
10474;BME280;5284;50.446;7.904;2024-03-23T20:16:25;97717.81;;;3.23;100.00
10474;BME280;5284;50.446;7.904;2024-03-23T20:21:29;97710.34;;;3.17;100.00
10474;BME280;5284;50.446;7.904;2024-03-23T20:26:31;97707.81;;;3.15;100.00
10474;BME280;5284;50.446;7.904;2024-03-23T20:31:34;97700.13;;;3.12;100.00
10474;BME280;5284;50.446;7.904;2024-03-23T20:36:38;97711.50;;;3.13;100.00
10474;BME280;5284;50.446;7.904;2024-03-23T20:41:41;97711.91;;;3.19;100.00
10474;BME280;5284;50.446;7.904;2024-03-23T20:46:43;97717.81;;;3.23;100.00
10474;BME280;5284;50.446;7.904;2024-03-23T20:51:47;97714.53;;;3.19;100.00
10474;BME280;5284;50.446;7.904;2024-03-23T20:56:49;97711.28;;;3.28;100.00
10474;BME280;5284;50.446;7.904;2024-03-23T21:01:51;97704.63;;;3.35;100.00
10474;BME280;5284;50.446;7.904;2024-03-23T21:06:55;97708.66;;;3.41;100.00
10474;BME280;5284;50.446;7.904;2024-03-23T21:11:58;97706.63;;;3.44;100.00
10474;BME280;5284;50.446;7.904;2024-03-23T21:17:00;97694.19;;;3.46;100.00
10474;BME280;5284;50.446;7.904;2024-03-23T21:22:04;97697.34;;;3.51;100.00
10474;BME280;5284;50.446;7.904;2024-03-23T21:27:07;97692.69;;;3.55;100.00
10474;BME280;5284;50.446;7.904;2024-03-23T21:32:09;97682.97;;;3.55;100.00
10474;BME280;5284;50.446;7.904;2024-03-23T21:37:12;97678.56;;;3.56;100.00
10474;BME280;5284;50.446;7.904;2024-03-23T21:42:14;97679.53;;;3.55;100.00
10474;BME280;5284;50.446;7.904;2024-03-23T21:47:16;97673.00;;;3.48;100.00
10474;BME280;5284;50.446;7.904;2024-03-23T21:52:21;97662.47;;;3.48;100.00
10474;BME280;5284;50.446;7.904;2024-03-23T21:57:25;97656.47;;;3.46;100.00
10474;BME280;5284;50.446;7.904;2024-03-23T22:02:27;97648.44;;;3.47;100.00
10474;BME280;5284;50.446;7.904;2024-03-23T22:07:31;97635.78;;;3.52;100.00
10474;BME280;5284;50.446;7.904;2024-03-23T22:12:33;97637.22;;;3.56;100.00
10474;BME280;5284;50.446;7.904;2024-03-23T22:17:35;97628.81;;;3.51;100.00
10474;BME280;5284;50.446;7.904;2024-03-23T22:22:39;97623.78;;;3.48;100.00
10474;BME280;5284;50.446;7.904;2024-03-23T22:27:41;97624.72;;;3.47;100.00
10474;BME280;5284;50.446;7.904;2024-03-23T22:32:44;97628.31;;;3.46;100.00
10474;BME280;5284;50.446;7.904;2024-03-23T22:37:47;97619.81;;;3.43;100.00
10474;BME280;5284;50.446;7.904;2024-03-23T22:42:49;97619.81;;;3.43;100.00
10474;BME280;5284;50.446;7.904;2024-03-23T22:47:51;97625.25;;;3.40;100.00
10474;BME280;5284;50.446;7.904;2024-03-23T22:52:55;97621.91;;;3.38;100.00
10474;BME280;5284;50.446;7.904;2024-03-23T22:57:57;97617.56;;;3.37;100.00
10474;BME280;5284;50.446;7.904;2024-03-23T23:02:59;97628.34;;;3.34;100.00
10474;BME280;5284;50.446;7.904;2024-03-23T23:08:02;97617.81;;;3.34;100.00
10474;BME280;5284;50.446;7.904;2024-03-23T23:13:05;97613.81;;;3.28;100.00
10474;BME280;5284;50.446;7.904;2024-03-23T23:18:07;97600.75;;;3.27;100.00
10474;BME280;5284;50.446;7.904;2024-03-23T23:23:12;97596.44;;;3.26;100.00
10474;BME280;5284;50.446;7.904;2024-03-23T23:28:15;97599.19;;;3.24;100.00
10474;BME280;5284;50.446;7.904;2024-03-23T23:33:17;97587.91;;;3.22;100.00
10474;BME280;5284;50.446;7.904;2024-03-23T23:38:20;97570.41;;;3.21;100.00
10474;BME280;5284;50.446;7.904;2024-03-23T23:43:24;97556.41;;;3.21;100.00
10474;BME280;5284;50.446;7.904;2024-03-23T23:48:26;97566.28;;;3.30;100.00
10474;BME280;5284;50.446;7.904;2024-03-23T23:53:30;97561.66;;;3.33;100.00
10474;BME280;5284;50.446;7.904;2024-03-23T23:58:32;97555.66;;;3.31;100.00
